sensor_id;sensor_type;location;lat;lon;timestamp;pressure;altitude;pressure_sealevel;temperature;humidity
3812;BME280;1921;49.368;11.068;2023-02-21T00:02:33;98082.03;;;5.59;85.54
3812;BME280;1921;49.368;11.068;2023-02-21T00:05:17;98077.16;;;5.16;89.28
3812;BME280;1921;49.368;11.068;2023-02-21T00:08:01;98120.66;;;5.42;89.57
3812;BME280;1921;49.368;11.068;2023-02-21T00:10:45;98101.97;;;5.38;87.80
3812;BME280;1921;49.368;11.068;2023-02-21T00:13:30;98068.31;;;5.19;87.47
3812;BME280;1921;49.368;11.068;2023-02-21T00:16:17;98079.34;;;4.90;90.47
3812;BME280;1921;49.368;11.068;2023-02-21T00:19:03;98123.91;;;5.03;92.16
3812;BME280;1921;49.368;11.068;2023-02-21T00:21:47;98109.84;;;4.96;91.48
3812;BME280;1921;49.368;11.068;2023-02-21T00:24:32;98057.34;;;4.65;90.77
3812;BME280;1921;49.368;11.068;2023-02-21T00:27:16;98115.44;;;5.01;90.13
3812;BME280;1921;49.368;11.068;2023-02-21T00:30:00;98072.22;;;4.73;89.47
3812;BME280;1921;49.368;11.068;2023-02-21T00:32:44;98066.34;;;4.71;89.90
3812;BME280;1921;49.368;11.068;2023-02-21T00:35:28;97989.91;;;4.28;90.54
3812;BME280;1921;49.368;11.068;2023-02-21T00:38:13;98113.97;;;4.99;90.43
3812;BME280;1921;49.368;11.068;2023-02-21T00:40:57;98070.75;;;4.80;89.94
3812;BME280;1921;49.368;11.068;2023-02-21T00:43:41;98065.66;;;4.69;90.04
3812;BME280;1921;49.368;11.068;2023-02-21T00:46:26;98005.31;;;4.39;90.04
3812;BME280;1921;49.368;11.068;2023-02-21T00:49:10;98097.19;;;4.93;89.77
3812;BME280;1921;49.368;11.068;2023-02-21T00:51:55;98061.59;;;4.66;90.51
3812;BME280;1921;49.368;11.068;2023-02-21T00:54:39;98035.41;;;4.50;90.33
3812;BME280;1921;49.368;11.068;2023-02-21T00:57:23;98031.84;;;4.41;90.54
3812;BME280;1921;49.368;11.068;2023-02-21T01:00:16;98107.63;;;4.82;90.91
3812;BME280;1921;49.368;11.068;2023-02-21T01:03:02;98054.97;;;4.52;90.61
3812;BME280;1921;49.368;11.068;2023-02-21T01:05:47;98074.31;;;4.58;91.14
3812;BME280;1921;49.368;11.068;2023-02-21T01:08:31;98054.16;;;4.52;92.96
3812;BME280;1921;49.368;11.068;2023-02-21T01:11:17;98051.78;;;4.60;93.19
3812;BME280;1921;49.368;11.068;2023-02-21T01:14:02;98045.38;;;4.64;93.43
3812;BME280;1921;49.368;11.068;2023-02-21T01:16:47;98069.81;;;4.81;93.84
3812;BME280;1921;49.368;11.068;2023-02-21T01:19:32;98052.38;;;4.73;93.39
3812;BME280;1921;49.368;11.068;2023-02-21T01:22:16;98052.09;;;4.76;93.16
3812;BME280;1921;49.368;11.068;2023-02-21T01:25:01;98040.66;;;4.69;93.08
3812;BME280;1921;49.368;11.068;2023-02-21T01:27:45;97988.03;;;4.30;92.11
3812;BME280;1921;49.368;11.068;2023-02-21T01:30:30;98043.19;;;4.29;91.43
3812;BME280;1921;49.368;11.068;2023-02-21T01:33:14;98042.03;;;4.22;91.05
3812;BME280;1921;49.368;11.068;2023-02-21T01:35:58;98064.34;;;4.23;91.32
3812;BME280;1921;49.368;11.068;2023-02-21T01:38:42;98031.13;;;3.97;91.60
3812;BME280;1921;49.368;11.068;2023-02-21T01:41:26;98029.09;;;3.91;91.70
3812;BME280;1921;49.368;11.068;2023-02-21T01:44:42;98061.59;;;4.03;91.92
3812;BME280;1921;49.368;11.068;2023-02-21T01:47:27;98019.03;;;3.77;92.86
3812;BME280;1921;49.368;11.068;2023-02-21T01:50:27;98014.50;;;3.69;93.85
3812;BME280;1921;49.368;11.068;2023-02-21T01:53:22;98019.91;;;3.66;93.59
3812;BME280;1921;49.368;11.068;2023-02-21T01:56:07;98028.59;;;3.65;94.32
3812;BME280;1921;49.368;11.068;2023-02-21T01:58:56;97982.88;;;3.35;94.17
3812;BME280;1921;49.368;11.068;2023-02-21T02:02:01;98072.22;;;3.89;94.21
3812;BME280;1921;49.368;11.068;2023-02-21T02:04:47;98024.06;;;3.58;94.69
3812;BME280;1921;49.368;11.068;2023-02-21T02:07:33;97982.19;;;3.33;95.02
3812;BME280;1921;49.368;11.068;2023-02-21T02:10:18;98000.09;;;3.35;94.55
3812;BME280;1921;49.368;11.068;2023-02-21T02:22:27;98079.31;;;3.76;95.30
3812;BME280;1921;49.368;11.068;2023-02-21T02:25:06;98081.69;;;3.68;95.50
3812;BME280;1921;49.368;11.068;2023-02-21T02:30:46;98074.00;;;3.57;94.23
3812;BME280;1921;49.368;11.068;2023-02-21T02:33:53;98073.06;;;3.46;95.00
3812;BME280;1921;49.368;11.068;2023-02-21T02:36:32;98017.06;;;3.05;94.96
3812;BME280;1921;49.368;11.068;2023-02-21T02:39:35;98060.59;;;3.31;94.89
3812;BME280;1921;49.368;11.068;2023-02-21T02:42:39;98071.47;;;3.34;94.84
3812;BME280;1921;49.368;11.068;2023-02-21T02:45:19;98058.34;;;3.26;94.80
3812;BME280;1921;49.368;11.068;2023-02-21T02:47:58;98057.69;;;3.13;94.75
3812;BME280;1921;49.368;11.068;2023-02-21T02:50:28;98005.63;;;2.87;95.22
3812;BME280;1921;49.368;11.068;2023-02-21T02:52:57;98056.63;;;3.15;96.03
3812;BME280;1921;49.368;11.068;2023-02-21T02:55:44;98058.97;;;3.18;96.46
3812;BME280;1921;49.368;11.068;2023-02-21T02:58:13;98003.59;;;2.79;96.17
3812;BME280;1921;49.368;11.068;2023-02-21T03:00:44;98045.06;;;2.99;96.26
3812;BME280;1921;49.368;11.068;2023-02-21T03:03:17;98069.41;;;2.94;98.77
3812;BME280;1921;49.368;11.068;2023-02-21T03:06:04;98071.50;;;2.89;98.66
3812;BME280;1921;49.368;11.068;2023-02-21T03:14:42;98068.25;;;2.76;97.99
3812;BME280;1921;49.368;11.068;2023-02-21T03:17:13;98046.34;;;2.59;97.63
3812;BME280;1921;49.368;11.068;2023-02-21T03:19:43;98053.25;;;2.59;97.55
3812;BME280;1921;49.368;11.068;2023-02-21T03:22:23;98038.84;;;2.45;97.23
3812;BME280;1921;49.368;11.068;2023-02-21T03:24:51;98072.56;;;2.76;97.46
3812;BME280;1921;49.368;11.068;2023-02-21T03:27:20;98015.34;;;2.38;97.09
3812;BME280;1921;49.368;11.068;2023-02-21T03:29:47;98075.16;;;2.76;97.21
3812;BME280;1921;49.368;11.068;2023-02-21T03:32:26;98084.97;;;2.82;97.58
3812;BME280;1921;49.368;11.068;2023-02-21T03:34:54;98026.44;;;2.39;96.76
3812;BME280;1921;49.368;11.068;2023-02-21T03:37:42;98077.59;;;2.77;96.74
3812;BME280;1921;49.368;11.068;2023-02-21T03:40:19;98097.75;;;2.83;97.50
3812;BME280;1921;49.368;11.068;2023-02-21T03:42:49;98016.63;;;2.44;97.88
3812;BME280;1921;49.368;11.068;2023-02-21T03:45:15;98017.22;;;2.36;97.31
3812;BME280;1921;49.368;11.068;2023-02-21T03:47:41;98010.31;;;2.37;97.72
3812;BME280;1921;49.368;11.068;2023-02-21T03:50:07;98010.66;;;2.32;97.65
3812;BME280;1921;49.368;11.068;2023-02-21T03:52:33;98089.66;;;2.77;97.42
3812;BME280;1921;49.368;11.068;2023-02-21T03:54:59;98030.53;;;2.41;98.29
3812;BME280;1921;49.368;11.068;2023-02-21T03:57:25;98059.00;;;2.62;97.96
3812;BME280;1921;49.368;11.068;2023-02-21T03:59:51;98054.44;;;2.55;98.02
3812;BME280;1921;49.368;11.068;2023-02-21T04:02:17;98035.13;;;2.49;98.11
3812;BME280;1921;49.368;11.068;2023-02-21T04:04:43;98069.78;;;2.67;99.15
3812;BME280;1921;49.368;11.068;2023-02-21T04:07:10;98051.28;;;2.74;99.54
3812;BME280;1921;49.368;11.068;2023-02-21T04:09:36;98063.22;;;2.86;100.00
3812;BME280;1921;49.368;11.068;2023-02-21T04:12:03;98032.19;;;2.87;100.00
3812;BME280;1921;49.368;11.068;2023-02-21T04:14:29;98040.34;;;3.15;100.00
3812;BME280;1921;49.368;11.068;2023-02-21T04:16:55;97994.56;;;3.07;100.00
3812;BME280;1921;49.368;11.068;2023-02-21T04:19:21;98024.88;;;3.58;100.00
3812;BME280;1921;49.368;11.068;2023-02-21T04:21:47;98048.78;;;3.92;100.00
3812;BME280;1921;49.368;11.068;2023-02-21T04:24:13;98010.50;;;3.97;100.00
3812;BME280;1921;49.368;11.068;2023-02-21T04:26:39;98023.03;;;4.23;100.00
3812;BME280;1921;49.368;11.068;2023-02-21T04:29:05;97997.97;;;4.14;100.00
3812;BME280;1921;49.368;11.068;2023-02-21T04:31:31;98009.50;;;4.30;100.00
3812;BME280;1921;49.368;11.068;2023-02-21T04:33:58;98016.38;;;4.51;100.00
3812;BME280;1921;49.368;11.068;2023-02-21T04:36:24;98007.88;;;4.60;99.66
3812;BME280;1921;49.368;11.068;2023-02-21T04:38:51;98003.25;;;4.64;99.72
3812;BME280;1921;49.368;11.068;2023-02-21T04:41:18;98000.16;;;4.70;98.31
3812;BME280;1921;49.368;11.068;2023-02-21T04:43:44;98021.31;;;4.94;98.22
3812;BME280;1921;49.368;11.068;2023-02-21T04:46:15;97988.91;;;4.80;97.85
3812;BME280;1921;49.368;11.068;2023-02-21T04:48:47;98007.72;;;5.02;97.13
3812;BME280;1921;49.368;11.068;2023-02-21T04:51:15;97990.03;;;4.97;96.15
3812;BME280;1921;49.368;11.068;2023-02-21T04:53:42;98017.84;;;5.24;96.08
3812;BME280;1921;49.368;11.068;2023-02-21T04:56:09;97984.50;;;5.11;95.41
3812;BME280;1921;49.368;11.068;2023-02-21T04:58:37;98010.22;;;5.32;95.16
3812;BME280;1921;49.368;11.068;2023-02-21T05:01:03;97983.84;;;5.29;95.27
3812;BME280;1921;49.368;11.068;2023-02-21T05:03:29;97967.38;;;5.30;94.69
3812;BME280;1921;49.368;11.068;2023-02-21T05:05:55;97971.59;;;5.40;94.23
3812;BME280;1921;49.368;11.068;2023-02-21T05:08:20;97978.53;;;5.50;94.33
3812;BME280;1921;49.368;11.068;2023-02-21T05:10:48;97951.44;;;5.44;94.49
3812;BME280;1921;49.368;11.068;2023-02-21T05:13:15;97948.31;;;5.50;93.74
3812;BME280;1921;49.368;11.068;2023-02-21T05:15:41;97969.53;;;5.63;93.33
3812;BME280;1921;49.368;11.068;2023-02-21T05:18:07;97927.50;;;5.42;93.07
3812;BME280;1921;49.368;11.068;2023-02-21T05:20:33;97962.19;;;5.68;93.19
3812;BME280;1921;49.368;11.068;2023-02-21T05:22:58;97947.22;;;5.72;92.81
3812;BME280;1921;49.368;11.068;2023-02-21T05:25:24;97960.81;;;5.84;92.79
3812;BME280;1921;49.368;11.068;2023-02-21T05:27:53;97982.19;;;6.05;92.23
3812;BME280;1921;49.368;11.068;2023-02-21T05:30:21;97965.28;;;6.01;92.21
3812;BME280;1921;49.368;11.068;2023-02-21T05:32:49;97963.09;;;6.06;91.88
3812;BME280;1921;49.368;11.068;2023-02-21T05:35:15;97959.84;;;6.04;92.05
3812;BME280;1921;49.368;11.068;2023-02-21T05:37:41;97977.53;;;6.18;91.84
3812;BME280;1921;49.368;11.068;2023-02-21T05:40:11;97990.72;;;6.35;91.67
3812;BME280;1921;49.368;11.068;2023-02-21T05:42:37;97976.00;;;6.26;91.26
3812;BME280;1921;49.368;11.068;2023-02-21T05:45:03;97975.28;;;6.33;91.06
3812;BME280;1921;49.368;11.068;2023-02-21T05:47:33;97947.00;;;6.12;90.88
3812;BME280;1921;49.368;11.068;2023-02-21T05:50:00;97959.25;;;6.20;90.79
3812;BME280;1921;49.368;11.068;2023-02-21T05:52:26;97948.38;;;6.07;88.64
3812;BME280;1921;49.368;11.068;2023-02-21T05:54:52;97970.31;;;6.22;89.09
3812;BME280;1921;49.368;11.068;2023-02-21T05:57:19;97945.78;;;6.16;89.57
3812;BME280;1921;49.368;11.068;2023-02-21T05:59:45;97976.50;;;6.39;89.55
3812;BME280;1921;49.368;11.068;2023-02-21T06:02:13;97961.09;;;6.37;89.02
3812;BME280;1921;49.368;11.068;2023-02-21T06:04:39;97957.69;;;6.37;89.00
3812;BME280;1921;49.368;11.068;2023-02-21T06:07:05;97978.66;;;6.53;89.11
3812;BME280;1921;49.368;11.068;2023-02-21T06:09:31;97997.94;;;6.68;88.95
3812;BME280;1921;49.368;11.068;2023-02-21T06:11:57;97910.34;;;6.17;89.08
3812;BME280;1921;49.368;11.068;2023-02-21T06:14:23;97879.19;;;5.89;88.43
3812;BME280;1921;49.368;11.068;2023-02-21T06:16:50;98017.94;;;6.76;88.10
3812;BME280;1921;49.368;11.068;2023-02-21T06:19:16;97967.59;;;6.51;88.45
3812;BME280;1921;49.368;11.068;2023-02-21T06:21:43;97961.34;;;6.44;88.37
3812;BME280;1921;49.368;11.068;2023-02-21T06:24:10;97977.13;;;6.60;88.04
3812;BME280;1921;49.368;11.068;2023-02-21T06:26:36;97937.94;;;6.36;87.74
3812;BME280;1921;49.368;11.068;2023-02-21T06:29:04;97979.31;;;6.55;87.82
3812;BME280;1921;49.368;11.068;2023-02-21T06:31:30;97961.69;;;6.31;87.48
3812;BME280;1921;49.368;11.068;2023-02-21T06:33:56;97965.47;;;6.37;87.44
3812;BME280;1921;49.368;11.068;2023-02-21T06:36:24;98022.13;;;6.59;88.27
3812;BME280;1921;49.368;11.068;2023-02-21T06:38:53;97971.88;;;6.33;89.05
3812;BME280;1921;49.368;11.068;2023-02-21T06:41:24;98010.25;;;6.57;89.28
3812;BME280;1921;49.368;11.068;2023-02-21T06:43:52;97975.13;;;6.44;89.36
3812;BME280;1921;49.368;11.068;2023-02-21T06:46:21;97973.84;;;6.58;90.08
3812;BME280;1921;49.368;11.068;2023-02-21T06:48:47;97980.19;;;6.73;89.74
3812;BME280;1921;49.368;11.068;2023-02-21T06:51:13;97946.41;;;6.65;89.60
3812;BME280;1921;49.368;11.068;2023-02-21T06:53:43;97974.47;;;6.97;88.85
3812;BME280;1921;49.368;11.068;2023-02-21T06:56:10;97984.06;;;7.15;88.87
3812;BME280;1921;49.368;11.068;2023-02-21T06:58:36;97999.50;;;7.34;87.77
3812;BME280;1921;49.368;11.068;2023-02-21T07:01:02;97982.75;;;7.28;87.04
3812;BME280;1921;49.368;11.068;2023-02-21T07:03:28;98016.56;;;7.54;86.70
3812;BME280;1921;49.368;11.068;2023-02-21T07:05:54;97988.31;;;7.34;86.09
3812;BME280;1921;49.368;11.068;2023-02-21T07:08:20;98030.78;;;7.68;85.10
3812;BME280;1921;49.368;11.068;2023-02-21T07:10:46;97994.66;;;7.57;84.55
3812;BME280;1921;49.368;11.068;2023-02-21T07:13:12;98017.22;;;7.74;85.04
3812;BME280;1921;49.368;11.068;2023-02-21T07:15:38;98003.22;;;7.67;84.91
3812;BME280;1921;49.368;11.068;2023-02-21T07:18:03;98004.84;;;7.68;84.39
3812;BME280;1921;49.368;11.068;2023-02-21T07:20:29;98031.38;;;7.98;82.77
3812;BME280;1921;49.368;11.068;2023-02-21T07:22:58;98001.25;;;7.87;83.44
3812;BME280;1921;49.368;11.068;2023-02-21T07:25:23;97981.50;;;7.94;83.70
3812;BME280;1921;49.368;11.068;2023-02-21T07:27:49;98011.88;;;8.20;83.14
3812;BME280;1921;49.368;11.068;2023-02-21T07:30:17;98031.41;;;8.42;82.23
3812;BME280;1921;49.368;11.068;2023-02-21T07:32:44;97986.94;;;8.27;82.01
3812;BME280;1921;49.368;11.068;2023-02-21T07:35:10;98014.06;;;8.50;82.17
3812;BME280;1921;49.368;11.068;2023-02-21T07:37:36;97998.81;;;8.55;81.80
3812;BME280;1921;49.368;11.068;2023-02-21T07:40:02;97993.97;;;8.60;80.08
3812;BME280;1921;49.368;11.068;2023-02-21T07:42:28;98048.63;;;9.03;80.20
3812;BME280;1921;49.368;11.068;2023-02-21T07:44:56;98041.81;;;9.10;79.86
3812;BME280;1921;49.368;11.068;2023-02-21T07:47:23;97983.34;;;8.88;79.19
3812;BME280;1921;49.368;11.068;2023-02-21T07:49:49;98041.88;;;9.26;78.50
3812;BME280;1921;49.368;11.068;2023-02-21T07:52:15;98020.88;;;9.20;78.24
3812;BME280;1921;49.368;11.068;2023-02-21T07:54:40;98046.16;;;9.52;78.92
3812;BME280;1921;49.368;11.068;2023-02-21T07:57:06;97996.03;;;9.33;78.33
3812;BME280;1921;49.368;11.068;2023-02-21T07:59:32;98067.72;;;9.94;77.62
3812;BME280;1921;49.368;11.068;2023-02-21T08:01:58;98060.88;;;10.02;77.18
3812;BME280;1921;49.368;11.068;2023-02-21T08:04:24;98037.59;;;9.92;76.08
3812;BME280;1921;49.368;11.068;2023-02-21T08:06:50;97993.47;;;9.82;75.24
3812;BME280;1921;49.368;11.068;2023-02-21T08:09:16;98007.44;;;10.06;73.23
3812;BME280;1921;49.368;11.068;2023-02-21T08:11:42;97999.00;;;10.04;73.19
3812;BME280;1921;49.368;11.068;2023-02-21T08:14:07;98035.31;;;10.21;74.10
3812;BME280;1921;49.368;11.068;2023-02-21T08:16:33;98024.88;;;10.30;73.11
3812;BME280;1921;49.368;11.068;2023-02-21T08:18:59;98032.88;;;10.44;72.87
3812;BME280;1921;49.368;11.068;2023-02-21T08:21:25;98022.44;;;10.44;71.22
3812;BME280;1921;49.368;11.068;2023-02-21T08:23:54;97897.59;;;9.61;72.48
3812;BME280;1921;49.368;11.068;2023-02-21T08:26:21;97988.56;;;10.20;73.04
3812;BME280;1921;49.368;11.068;2023-02-21T08:28:47;97998.31;;;10.42;73.53
3812;BME280;1921;49.368;11.068;2023-02-21T08:31:13;98001.19;;;10.64;71.74
3812;BME280;1921;49.368;11.068;2023-02-21T08:33:38;98017.91;;;10.94;73.45
3812;BME280;1921;49.368;11.068;2023-02-21T08:36:05;98048.47;;;11.47;71.38
3812;BME280;1921;49.368;11.068;2023-02-21T08:38:31;98027.22;;;11.73;71.17
3812;BME280;1921;49.368;11.068;2023-02-21T08:40:57;98055.84;;;12.21;68.01
3812;BME280;1921;49.368;11.068;2023-02-21T08:43:24;98040.44;;;12.26;66.39
3812;BME280;1921;49.368;11.068;2023-02-21T08:45:50;98037.97;;;12.77;64.84
3812;BME280;1921;49.368;11.068;2023-02-21T08:48:15;98035.78;;;13.25;62.89
3812;BME280;1921;49.368;11.068;2023-02-21T08:50:41;98047.94;;;13.47;57.70
3812;BME280;1921;49.368;11.068;2023-02-21T08:53:12;98031.75;;;13.80;59.66
3812;BME280;1921;49.368;11.068;2023-02-21T08:55:38;98074.63;;;14.15;58.82
3812;BME280;1921;49.368;11.068;2023-02-21T08:58:03;98018.88;;;14.34;58.03
3812;BME280;1921;49.368;11.068;2023-02-21T09:00:29;98057.78;;;15.21;55.43
3812;BME280;1921;49.368;11.068;2023-02-21T09:02:57;98053.97;;;15.24;53.55
3812;BME280;1921;49.368;11.068;2023-02-21T09:05:27;98024.09;;;15.38;53.91
3812;BME280;1921;49.368;11.068;2023-02-21T09:07:56;98036.41;;;15.85;52.58
3812;BME280;1921;49.368;11.068;2023-02-21T09:10:26;98050.19;;;16.40;52.18
3812;BME280;1921;49.368;11.068;2023-02-21T09:12:52;98066.97;;;16.66;52.41
3812;BME280;1921;49.368;11.068;2023-02-21T09:15:18;98030.06;;;16.92;51.20
3812;BME280;1921;49.368;11.068;2023-02-21T09:17:44;98042.22;;;17.52;50.52
3812;BME280;1921;49.368;11.068;2023-02-21T09:20:19;98058.88;;;17.90;48.99
3812;BME280;1921;49.368;11.068;2023-02-21T09:22:45;98040.31;;;18.03;47.87
3812;BME280;1921;49.368;11.068;2023-02-21T09:25:14;98048.59;;;18.32;46.12
3812;BME280;1921;49.368;11.068;2023-02-21T09:27:41;98021.09;;;18.65;47.51
3812;BME280;1921;49.368;11.068;2023-02-21T09:30:16;98008.88;;;19.07;46.17
3812;BME280;1921;49.368;11.068;2023-02-21T09:32:42;98037.53;;;19.88;44.92
3812;BME280;1921;49.368;11.068;2023-02-21T09:35:10;97957.97;;;19.42;43.36
3812;BME280;1921;49.368;11.068;2023-02-21T09:37:39;98032.91;;;20.26;43.06
3812;BME280;1921;49.368;11.068;2023-02-21T09:40:40;98077.53;;;16.53;51.67
3812;BME280;1921;49.368;11.068;2023-02-21T09:43:17;98082.09;;;18.07;50.14
3812;BME280;1921;49.368;11.068;2023-02-21T09:45:44;98035.50;;;18.69;47.73
3812;BME280;1921;49.368;11.068;2023-02-21T09:48:16;98061.81;;;18.32;48.18
3812;BME280;1921;49.368;11.068;2023-02-21T09:50:50;98035.38;;;18.07;48.18
3812;BME280;1921;49.368;11.068;2023-02-21T09:53:35;98015.19;;;17.56;49.09
3812;BME280;1921;49.368;11.068;2023-02-21T09:56:32;97942.47;;;17.42;48.31
3812;BME280;1921;49.368;11.068;2023-02-21T09:58:59;98052.88;;;18.08;47.87
3812;BME280;1921;49.368;11.068;2023-02-21T10:01:58;97876.28;;;16.87;49.65
3812;BME280;1921;49.368;11.068;2023-02-21T10:10:21;97993.56;;;17.47;48.90
3812;BME280;1921;49.368;11.068;2023-02-21T10:13:53;98061.78;;;17.69;49.74
3812;BME280;1921;49.368;11.068;2023-02-21T10:16:16;98086.28;;;17.89;48.32
3812;BME280;1921;49.368;11.068;2023-02-21T10:21:38;98021.00;;;16.62;50.77
3812;BME280;1921;49.368;11.068;2023-02-21T10:24:20;97978.13;;;15.88;52.54
3812;BME280;1921;49.368;11.068;2023-02-21T10:27:19;98079.75;;;16.42;52.57
3812;BME280;1921;49.368;11.068;2023-02-21T10:32:22;98082.53;;;15.95;54.70
3812;BME280;1921;49.368;11.068;2023-02-21T10:34:49;98013.31;;;15.87;53.31
3812;BME280;1921;49.368;11.068;2023-02-21T10:39:52;98031.56;;;16.09;52.91
3812;BME280;1921;49.368;11.068;2023-02-21T10:42:39;98077.53;;;16.53;52.62
3812;BME280;1921;49.368;11.068;2023-02-21T10:45:08;98062.13;;;16.43;53.11
3812;BME280;1921;49.368;11.068;2023-02-21T10:47:52;98043.91;;;16.41;52.71
3812;BME280;1921;49.368;11.068;2023-02-21T10:58:58;98078.13;;;16.48;53.78
3812;BME280;1921;49.368;11.068;2023-02-21T11:04:29;98069.81;;;16.31;54.59
3812;BME280;1921;49.368;11.068;2023-02-21T11:07:09;97921.25;;;15.61;54.14
3812;BME280;1921;49.368;11.068;2023-02-21T11:09:45;97998.16;;;16.23;54.41
3812;BME280;1921;49.368;11.068;2023-02-21T11:12:27;98008.69;;;15.96;54.99
3812;BME280;1921;49.368;11.068;2023-02-21T11:17:27;97905.09;;;16.75;51.56
3812;BME280;1921;49.368;11.068;2023-02-21T11:22:39;98011.09;;;18.48;48.61
3812;BME280;1921;49.368;11.068;2023-02-21T11:25:28;98034.06;;;19.09;48.23
3812;BME280;1921;49.368;11.068;2023-02-21T11:30:45;97968.88;;;18.67;47.15
3812;BME280;1921;49.368;11.068;2023-02-21T11:33:20;97992.00;;;18.46;48.46
3812;BME280;1921;49.368;11.068;2023-02-21T11:35:51;97970.81;;;18.10;49.27
3812;BME280;1921;49.368;11.068;2023-02-21T11:38:58;97970.13;;;17.96;49.54
3812;BME280;1921;49.368;11.068;2023-02-21T11:41:46;97993.22;;;18.00;49.77
3812;BME280;1921;49.368;11.068;2023-02-21T11:47:25;97986.44;;;17.86;51.16
3812;BME280;1921;49.368;11.068;2023-02-21T11:50:00;97962.41;;;17.94;50.91
3812;BME280;1921;49.368;11.068;2023-02-21T11:52:45;97959.94;;;17.99;50.59
3812;BME280;1921;49.368;11.068;2023-02-21T11:55:15;97971.94;;;18.64;49.30
3812;BME280;1921;49.368;11.068;2023-02-21T12:04:04;97935.94;;;20.01;46.09
3812;BME280;1921;49.368;11.068;2023-02-21T12:07:14;97961.06;;;20.97;43.53
3812;BME280;1921;49.368;11.068;2023-02-21T12:12:39;97953.59;;;21.23;42.88
3812;BME280;1921;49.368;11.068;2023-02-21T12:18:58;97938.00;;;20.58;44.15
3812;BME280;1921;49.368;11.068;2023-02-21T12:21:58;97926.47;;;20.05;45.58
3812;BME280;1921;49.368;11.068;2023-02-21T12:25:02;97905.41;;;19.75;45.53
3812;BME280;1921;49.368;11.068;2023-02-21T12:45:23;97918.34;;;19.23;47.67
3812;BME280;1921;49.368;11.068;2023-02-21T12:48:01;97874.91;;;18.89;48.31
3812;BME280;1921;49.368;11.068;2023-02-21T12:50:35;97894.34;;;18.95;48.62
3812;BME280;1921;49.368;11.068;2023-02-21T12:53:16;97856.88;;;18.68;48.97
3812;BME280;1921;49.368;11.068;2023-02-21T12:56:05;97897.75;;;19.14;48.19
3812;BME280;1921;49.368;11.068;2023-02-21T12:58:51;97876.84;;;18.94;48.78
3812;BME280;1921;49.368;11.068;2023-02-21T13:01:39;97866.00;;;19.02;48.51
3812;BME280;1921;49.368;11.068;2023-02-21T13:04:37;97882.28;;;19.94;47.65
3812;BME280;1921;49.368;11.068;2023-02-21T13:07:23;97857.97;;;20.73;45.90
3812;BME280;1921;49.368;11.068;2023-02-21T13:10:18;97856.44;;;21.67;43.46
3812;BME280;1921;49.368;11.068;2023-02-21T13:13:08;97833.84;;;21.82;42.64
3812;BME280;1921;49.368;11.068;2023-02-21T13:15:36;97807.47;;;21.41;42.56
3812;BME280;1921;49.368;11.068;2023-02-21T13:18:26;97812.41;;;20.87;44.15
3812;BME280;1921;49.368;11.068;2023-02-21T13:21:26;97815.44;;;20.39;45.09
3812;BME280;1921;49.368;11.068;2023-02-21T13:23:58;97842.25;;;20.42;45.73
3812;BME280;1921;49.368;11.068;2023-02-21T13:29:29;97766.47;;;19.31;46.98
3812;BME280;1921;49.368;11.068;2023-02-21T13:32:14;97806.75;;;19.33;47.65
3812;BME280;1921;49.368;11.068;2023-02-21T13:35:07;97799.47;;;19.17;48.28
3812;BME280;1921;49.368;11.068;2023-02-21T13:37:35;97818.53;;;19.19;48.30
3812;BME280;1921;49.368;11.068;2023-02-21T13:41:01;97799.53;;;18.98;48.87
3812;BME280;1921;49.368;11.068;2023-02-21T13:43:31;97805.63;;;18.69;49.60
3812;BME280;1921;49.368;11.068;2023-02-21T13:57:43;97789.47;;;18.28;51.28
3812;BME280;1921;49.368;11.068;2023-02-21T14:08:40;97752.06;;;20.09;46.41
3812;BME280;1921;49.368;11.068;2023-02-21T14:13:50;97751.19;;;19.68;46.85
3812;BME280;1921;49.368;11.068;2023-02-21T14:16:27;97746.38;;;19.53;47.63
3812;BME280;1921;49.368;11.068;2023-02-21T14:19:09;97727.59;;;19.31;48.30
3812;BME280;1921;49.368;11.068;2023-02-21T14:21:40;97738.91;;;19.27;48.17
3812;BME280;1921;49.368;11.068;2023-02-21T14:24:25;97782.13;;;19.56;48.83
3812;BME280;1921;49.368;11.068;2023-02-21T14:29:36;97771.69;;;20.93;46.80
3812;BME280;1921;49.368;11.068;2023-02-21T14:37:43;97769.28;;;23.28;41.71
3812;BME280;1921;49.368;11.068;2023-02-21T14:43:21;97725.34;;;21.90;41.82
3812;BME280;1921;49.368;11.068;2023-02-21T14:49:05;97762.66;;;20.78;44.92
3812;BME280;1921;49.368;11.068;2023-02-21T15:04:01;97741.75;;;23.86;39.03
3812;BME280;1921;49.368;11.068;2023-02-21T15:06:30;97717.97;;;24.42;38.74
3812;BME280;1921;49.368;11.068;2023-02-21T15:08:57;97722.31;;;25.05;36.95
3812;BME280;1921;49.368;11.068;2023-02-21T15:11:37;97680.56;;;24.22;37.81
3812;BME280;1921;49.368;11.068;2023-02-21T15:14:26;97694.13;;;23.53;39.38
3812;BME280;1921;49.368;11.068;2023-02-21T15:17:00;97700.53;;;23.57;39.07
3812;BME280;1921;49.368;11.068;2023-02-21T15:19:35;97698.34;;;23.96;38.27
3812;BME280;1921;49.368;11.068;2023-02-21T15:22:23;97737.75;;;23.89;39.39
3812;BME280;1921;49.368;11.068;2023-02-21T15:25:17;97689.78;;;23.89;38.19
3812;BME280;1921;49.368;11.068;2023-02-21T15:33:17;97693.44;;;25.37;36.34
3812;BME280;1921;49.368;11.068;2023-02-21T15:36:00;97691.31;;;24.83;36.63
3812;BME280;1921;49.368;11.068;2023-02-21T15:38:47;97684.25;;;24.16;37.10
3812;BME280;1921;49.368;11.068;2023-02-21T15:44:07;97733.22;;;22.51;40.40
3812;BME280;1921;49.368;11.068;2023-02-21T15:46:46;97734.84;;;20.80;44.23
3812;BME280;1921;49.368;11.068;2023-02-21T15:49:29;97725.06;;;19.83;45.66
3812;BME280;1921;49.368;11.068;2023-02-21T15:51:56;97702.31;;;19.12;46.92
3812;BME280;1921;49.368;11.068;2023-02-21T15:54:24;97736.88;;;18.45;50.35
3812;BME280;1921;49.368;11.068;2023-02-21T15:57:23;97696.56;;;17.71;51.88
3812;BME280;1921;49.368;11.068;2023-02-21T16:02:41;97614.50;;;16.56;53.39
3812;BME280;1921;49.368;11.068;2023-02-21T16:05:29;97730.06;;;17.03;54.72
3812;BME280;1921;49.368;11.068;2023-02-21T16:08:02;97691.03;;;16.61;55.20
3812;BME280;1921;49.368;11.068;2023-02-21T16:10:29;97736.78;;;16.67;55.75
3812;BME280;1921;49.368;11.068;2023-02-21T16:12:59;97716.50;;;16.36;56.96
3812;BME280;1921;49.368;11.068;2023-02-21T16:15:32;97701.06;;;16.08;57.52
3812;BME280;1921;49.368;11.068;2023-02-21T16:18:01;97630.72;;;15.39;58.39
3812;BME280;1921;49.368;11.068;2023-02-21T16:20:39;97686.06;;;15.57;59.44
3812;BME280;1921;49.368;11.068;2023-02-21T16:23:30;97663.88;;;15.26;60.30
3812;BME280;1921;49.368;11.068;2023-02-21T16:26:20;97689.97;;;15.21;60.96
3812;BME280;1921;49.368;11.068;2023-02-21T16:28:51;97715.84;;;15.18;62.17